Kenora Airport

CYQK | YQK

Kenora , Ontario , Canada

Sunday, June 7th, 2020 | 01:47

Weather

CYQK 070600Z 11009KT 20SM -SHRA OVC130 12/08 A3003 RMK AC8 SLP176

Charts

No Charts Available

Gates

No Gates Available

Runways

1 Available

Active ATC

Events -Coming Soon-

1 Events Coming Up Soon

Next event:
CYQK Flyout